EFTP/TMP METAR and TAF weather

Enter ICAO airport designator
Station Type Date Time Source
EFTP METAR 2019/08/24 08:50 UTC NOAA

EFTP 240850Z AUTO 27010KT 9999 FEW019 SCT031 16/10 Q1022


Station Type Date Time Source
EFTP Decoded METAR 2019/08/24 08:50 UTC NOAA

Station name not available
Aug 24, 2019 - 04:50 AM EDT / 2019.08.24 0850 UTC
Wind: from the W (270 degrees) at 12 MPH (10 KT):0
Visibility: greater than 7 mile(s):0
Sky conditions: partly cloudy
Temperature: 60 F (16 C)
Dew Point: 50 F (10 C)
Relative Humidity: 67%
Pressure (altimeter): 30.18 in. Hg (1022 hPa)
ob: EFTP 240850Z AUTO 27010KT 9999 FEW019 SCT031 16/10 Q1022
cycle: 9

Station Type Date Time Source
EFTP TAF 2019/08/24 09:42 UTC NOAA

TAF EFTP 240835Z 2409/2509 29009KT 9999 FEW015 SCT025 PROB30 2500/2505 2000 BR

Example: see airport list